Terminal Aerodrome Forecast
Issued by NWS Grand Rapids, MI

Home | Current Version | Previous Version | Text Only | Print | Product List | Glossary On
Versions: 1 2 3 4 5 6 7 8 9 10 11 12 13 14 15 16 17 18 19
000
FTUS43 KGRR 302340
TAFGRR
TAF
KGRR 302340Z 0100/0124 08010KT 5SM -RA OVC035
     FM010200 06009KT P6SM -RA OVC025
     FM010400 05009KT P6SM -RA OVC015
     FM010900 04008KT 4SM BR OVC007=

USA.gov is the U.S. government's official web portal to all federal, state and local government web resources and services.